createdAt,value
2023-01-08T00:00:22.584Z,8.45
2023-01-08T00:01:22.551Z,8.45
2023-01-08T00:02:22.561Z,8.47
2023-01-08T00:03:22.693Z,8.45
2023-01-08T00:04:22.507Z,8.47
2023-01-08T00:05:22.502Z,8.47
2023-01-08T00:06:22.493Z,8.47
2023-01-08T00:07:22.489Z,8.47
2023-01-08T00:08:22.458Z,8.47
2023-01-08T00:09:22.448Z,8.45
2023-01-08T00:10:22.446Z,8.45
2023-01-08T00:11:22.457Z,8.42
2023-01-08T00:12:22.434Z,8.39
2023-01-08T00:13:22.424Z,8.37
2023-01-08T00:14:22.398Z,8.35
2023-01-08T00:15:22.392Z,8.33
2023-01-08T00:16:22.500Z,8.32
2023-01-08T00:17:22.365Z,8.32
2023-01-08T00:18:22.372Z,8.29
2023-01-08T00:19:22.350Z,8.29
2023-01-08T00:20:22.327Z,8.29
2023-01-08T00:21:22.316Z,8.30
2023-01-08T00:22:22.310Z,8.29
2023-01-08T00:23:22.326Z,8.30
2023-01-08T00:24:22.281Z,8.29
2023-01-08T00:25:22.274Z,8.28
2023-01-08T00:26:22.271Z,8.26
2023-01-08T00:27:22.259Z,8.26
2023-01-08T00:28:22.255Z,8.26
2023-01-08T00:29:22.232Z,8.25
2023-01-08T00:30:22.222Z,8.22
2023-01-08T00:31:22.279Z,8.21
2023-01-08T00:32:22.198Z,8.21
2023-01-08T00:33:22.205Z,8.18
2023-01-08T00:34:22.173Z,8.18
2023-01-08T00:35:22.174Z,8.18
2023-01-08T00:36:22.153Z,8.18
2023-01-08T00:37:22.144Z,8.18
2023-01-08T00:38:22.133Z,8.18
2023-01-08T00:39:22.122Z,8.18
2023-01-08T00:40:22.107Z,8.20
2023-01-08T00:41:22.103Z,8.20
2023-01-08T00:42:22.086Z,8.21
2023-01-08T00:43:22.091Z,8.22
2023-01-08T00:44:22.065Z,8.22
2023-01-08T00:45:22.056Z,8.26
2023-01-08T00:46:22.098Z,8.25
2023-01-08T00:47:22.034Z,8.26
2023-01-08T00:48:22.036Z,8.28
2023-01-08T00:49:22.003Z,8.30
2023-01-08T00:50:21.992Z,8.30
2023-01-08T00:51:21.985Z,8.30
2023-01-08T00:52:21.973Z,8.30
2023-01-08T00:53:21.974Z,8.32
2023-01-08T00:54:21.945Z,8.32
2023-01-08T00:55:21.942Z,8.32
2023-01-08T00:56:21.924Z,8.32
2023-01-08T00:57:21.919Z,8.32
2023-01-08T00:58:21.925Z,8.35
2023-01-08T00:59:21.888Z,8.35
2023-01-08T01:00:21.884Z,8.33
2023-01-08T01:01:22.015Z,8.33
2023-01-08T01:02:21.901Z,8.35
2023-01-08T01:03:21.869Z,8.36
2023-01-08T01:04:21.874Z,8.39
2023-01-08T01:05:21.831Z,8.37
2023-01-08T01:06:21.819Z,8.39
2023-01-08T01:07:21.810Z,8.40
2023-01-08T01:08:21.819Z,8.40
2023-01-08T01:09:21.793Z,8.39
2023-01-08T01:10:21.778Z,8.42
2023-01-08T01:11:21.766Z,8.44
2023-01-08T01:12:21.746Z,8.47
2023-01-08T01:13:21.752Z,8.48
2023-01-08T01:14:21.744Z,8.50
2023-01-08T01:15:21.727Z,8.53
2023-01-08T01:16:21.731Z,8.55
2023-01-08T01:17:21.698Z,8.55
2023-01-08T01:18:21.694Z,8.57
2023-01-08T01:19:21.674Z,8.58
2023-01-08T01:20:21.655Z,8.58
2023-01-08T01:21:21.644Z,8.58
2023-01-08T01:22:21.633Z,8.58
2023-01-08T01:23:21.643Z,8.62
2023-01-08T01:24:21.611Z,8.60
2023-01-08T01:25:21.633Z,8.62
2023-01-08T01:26:21.586Z,8.60
2023-01-08T01:27:21.574Z,8.62
2023-01-08T01:28:21.581Z,8.63
2023-01-08T01:29:21.569Z,8.62
2023-01-08T01:30:21.546Z,8.60
2023-01-08T01:31:21.651Z,8.60
2023-01-08T01:32:21.528Z,8.62
2023-01-08T01:33:21.533Z,8.65
2023-01-08T01:34:21.505Z,8.63
2023-01-08T01:35:21.495Z,8.63
2023-01-08T01:36:21.486Z,8.65
2023-01-08T01:37:21.468Z,8.66
2023-01-08T01:38:21.472Z,8.65
2023-01-08T01:39:21.454Z,8.65
2023-01-08T01:40:21.440Z,8.66
2023-01-08T01:41:21.429Z,8.66
2023-01-08T01:42:21.405Z,8.68
2023-01-08T01:43:21.415Z,8.68
2023-01-08T01:44:21.411Z,8.69
2023-01-08T01:45:21.387Z,8.71
2023-01-08T01:46:21.425Z,8.71
2023-01-08T01:47:21.353Z,8.69
2023-01-08T01:48:21.358Z,8.69
2023-01-08T01:49:21.341Z,8.71
2023-01-08T01:50:21.317Z,8.72
2023-01-08T01:51:21.312Z,8.72
2023-01-08T01:52:21.303Z,8.73
2023-01-08T01:53:21.315Z,8.73
2023-01-08T01:54:21.283Z,8.75
2023-01-08T01:55:21.278Z,8.75
2023-01-08T01:56:21.258Z,8.73
2023-01-08T01:57:21.247Z,8.75
2023-01-08T01:58:21.257Z,8.76
2023-01-08T01:59:21.214Z,8.76
2023-01-08T02:00:21.210Z,8.78
2023-01-08T02:01:21.307Z,8.78
2023-01-08T02:02:22.946Z,8.78
2023-01-08T02:03:21.198Z,8.78
2023-01-08T02:04:21.203Z,8.79
2023-01-08T02:05:21.158Z,8.78
2023-01-08T02:06:21.145Z,8.79
2023-01-08T02:07:21.135Z,8.81
2023-01-08T02:08:21.155Z,8.83
2023-01-08T02:09:21.115Z,8.83
2023-01-08T02:10:21.104Z,8.83
2023-01-08T02:11:21.099Z,8.84
2023-01-08T02:12:21.082Z,8.84
2023-01-08T02:13:21.081Z,8.84
2023-01-08T02:14:21.061Z,8.83
2023-01-08T02:15:21.045Z,8.84
2023-01-08T02:16:21.070Z,8.87
2023-01-08T02:17:21.027Z,8.87
2023-01-08T02:18:21.023Z,8.87
2023-01-08T02:19:20.997Z,8.87
2023-01-08T02:20:20.991Z,8.86
2023-01-08T02:21:20.981Z,8.84
2023-01-08T02:22:20.958Z,8.83
2023-01-08T02:23:20.972Z,8.81
2023-01-08T02:24:20.945Z,8.81
2023-01-08T02:25:20.946Z,8.79
2023-01-08T02:26:20.970Z,8.79
2023-01-08T02:27:20.921Z,8.79
2023-01-08T02:28:20.922Z,8.78
2023-01-08T02:29:20.897Z,8.78
2023-01-08T02:30:20.884Z,8.78
2023-01-08T02:31:20.916Z,8.78
2023-01-08T02:32:20.852Z,8.76
2023-01-08T02:33:20.866Z,8.75
2023-01-08T02:34:20.834Z,8.73
2023-01-08T02:35:20.820Z,8.72
2023-01-08T02:36:20.806Z,8.71
2023-01-08T02:37:20.799Z,8.69
2023-01-08T02:38:20.801Z,8.72
2023-01-08T02:39:20.780Z,8.72
2023-01-08T02:40:20.777Z,8.72
2023-01-08T02:41:20.766Z,8.71
2023-01-08T02:42:20.749Z,8.69
2023-01-08T02:43:20.761Z,8.69
2023-01-08T02:44:20.707Z,8.68
2023-01-08T02:45:20.709Z,8.68
2023-01-08T02:46:20.747Z,8.66
2023-01-08T02:47:20.681Z,8.65
2023-01-08T02:48:20.685Z,8.68
2023-01-08T02:49:20.654Z,8.68
2023-01-08T02:50:20.653Z,8.69
2023-01-08T02:51:20.644Z,8.69
2023-01-08T02:52:20.629Z,8.71
2023-01-08T02:53:20.636Z,8.71
2023-01-08T02:54:20.605Z,8.72
2023-01-08T02:55:20.605Z,8.71
2023-01-08T02:56:20.589Z,8.69
2023-01-08T02:57:20.579Z,8.69
2023-01-08T02:58:20.567Z,8.69
2023-01-08T02:59:20.567Z,8.71
2023-01-08T03:00:20.543Z,8.71
2023-01-08T03:01:20.645Z,8.73
2023-01-08T03:02:20.689Z,8.73
2023-01-08T03:03:20.505Z,8.75
2023-01-08T03:04:20.612Z,8.76
2023-01-08T03:05:20.510Z,8.79
2023-01-08T03:06:20.491Z,8.79
2023-01-08T03:07:20.474Z,8.79
2023-01-08T03:08:20.450Z,8.81
2023-01-08T03:09:20.464Z,8.79
2023-01-08T03:10:20.437Z,8.81
2023-01-08T03:11:20.422Z,8.83
2023-01-08T03:12:20.415Z,8.83
2023-01-08T03:13:20.395Z,8.84
2023-01-08T03:14:20.407Z,8.83
2023-01-08T03:15:20.376Z,8.83
2023-01-08T03:16:20.412Z,8.79
2023-01-08T03:17:20.356Z,8.79
2023-01-08T03:18:20.343Z,8.79
2023-01-08T03:19:20.361Z,8.79
2023-01-08T03:20:20.323Z,8.78
2023-01-08T03:21:20.421Z,8.79
2023-01-08T03:22:20.299Z,8.78
2023-01-08T03:23:20.284Z,8.79
2023-01-08T03:24:20.294Z,8.81
2023-01-08T03:25:20.263Z,8.79
2023-01-08T03:26:20.256Z,8.81
2023-01-08T03:27:20.258Z,8.81
2023-01-08T03:28:20.236Z,8.81
2023-01-08T03:29:20.243Z,8.83
2023-01-08T03:30:20.201Z,8.83
2023-01-08T03:31:20.238Z,8.84
2023-01-08T03:32:20.188Z,8.84
2023-01-08T03:33:20.176Z,8.84
2023-01-08T03:34:20.178Z,8.84
2023-01-08T03:35:20.155Z,8.83
2023-01-08T03:36:20.142Z,8.83
2023-01-08T03:37:20.135Z,8.84
2023-01-08T03:38:20.126Z,8.84
2023-01-08T03:39:20.123Z,8.84
2023-01-08T03:40:20.093Z,8.86
2023-01-08T03:41:20.082Z,8.86
2023-01-08T03:42:20.076Z,8.86
2023-01-08T03:43:20.078Z,8.88
2023-01-08T03:44:20.069Z,8.88
2023-01-08T03:45:20.045Z,8.88
2023-01-08T03:46:20.096Z,8.88
2023-01-08T03:47:20.014Z,8.88
2023-01-08T03:48:20.004Z,8.91
2023-01-08T03:49:20.026Z,8.91
2023-01-08T03:50:19.994Z,8.91
2023-01-08T03:51:19.980Z,8.91
2023-01-08T03:52:19.971Z,8.91
2023-01-08T03:53:19.957Z,8.91
2023-01-08T03:54:19.967Z,8.91
2023-01-08T03:55:19.941Z,8.90
2023-01-08T03:56:19.916Z,8.90
2023-01-08T03:57:19.918Z,8.91
2023-01-08T03:58:19.901Z,8.93
2023-01-08T03:59:19.907Z,8.94
2023-01-08T04:00:19.874Z,8.96
2023-01-08T04:01:20.012Z,8.97
2023-01-08T04:02:20.057Z,8.96
2023-01-08T04:03:19.854Z,8.97
2023-01-08T04:04:19.988Z,8.99
2023-01-08T04:05:19.816Z,8.97
2023-01-08T04:06:19.832Z,8.99
2023-01-08T04:07:19.801Z,9.01
2023-01-08T04:08:19.789Z,9.01
2023-01-08T04:09:19.791Z,9.04
2023-01-08T04:10:19.768Z,9.04
2023-01-08T04:11:19.770Z,9.04
2023-01-08T04:12:19.746Z,9.04
2023-01-08T04:13:19.733Z,9.04
2023-01-08T04:14:19.749Z,9.05
2023-01-08T04:15:19.712Z,9.06
2023-01-08T04:16:19.748Z,9.06
2023-01-08T04:17:19.694Z,9.06
2023-01-08T04:18:19.679Z,9.09
2023-01-08T04:19:19.690Z,9.09
2023-01-08T04:20:19.660Z,9.09
2023-01-08T04:21:19.648Z,9.10
2023-01-08T04:22:19.634Z,9.10
2023-01-08T04:23:19.623Z,9.10
2023-01-08T04:24:19.630Z,9.10
2023-01-08T04:25:19.617Z,9.06
2023-01-08T04:26:19.597Z,9.06
2023-01-08T04:27:19.587Z,9.04
2023-01-08T04:28:19.573Z,9.05
2023-01-08T04:29:19.572Z,9.04
2023-01-08T04:30:19.550Z,9.02
2023-01-08T04:31:19.584Z,9.04
2023-01-08T04:32:19.529Z,9.02
2023-01-08T04:33:19.517Z,9.01
2023-01-08T04:34:19.516Z,8.99
2023-01-08T04:35:19.498Z,8.99
2023-01-08T04:36:19.486Z,8.99
2023-01-08T04:37:19.474Z,8.99
2023-01-08T04:38:19.460Z,8.96
2023-01-08T04:39:19.460Z,8.96
2023-01-08T04:40:19.448Z,8.96
2023-01-08T04:41:19.426Z,8.97
2023-01-08T04:42:19.413Z,8.94
2023-01-08T04:43:19.412Z,8.94
2023-01-08T04:44:19.421Z,8.93
2023-01-08T04:45:19.404Z,8.91
2023-01-08T04:46:19.415Z,8.91
2023-01-08T04:47:19.382Z,8.90
2023-01-08T04:48:19.353Z,8.87
2023-01-08T04:49:19.337Z,8.87
2023-01-08T04:50:19.343Z,8.84
2023-01-08T04:51:19.334Z,8.86
2023-01-08T04:52:19.302Z,8.87
2023-01-08T04:53:19.297Z,8.87
2023-01-08T04:54:19.284Z,8.84
2023-01-08T04:55:19.295Z,8.84
2023-01-08T04:56:19.280Z,8.81
2023-01-08T04:57:19.249Z,8.79
2023-01-08T04:58:19.240Z,8.79
2023-01-08T04:59:19.225Z,8.78
2023-01-08T05:00:19.236Z,8.76
2023-01-08T05:01:19.386Z,8.73
2023-01-08T05:02:19.389Z,8.71
2023-01-08T05:03:19.282Z,8.71
2023-01-08T05:04:19.182Z,8.71
2023-01-08T05:05:19.181Z,8.68
2023-01-08T05:06:19.161Z,8.65
2023-01-08T05:07:19.149Z,8.63
2023-01-08T05:08:19.120Z,8.62
2023-01-08T05:09:19.117Z,8.60
2023-01-08T05:10:19.135Z,8.58
2023-01-08T05:11:19.096Z,8.57
2023-01-08T05:12:19.101Z,8.55
2023-01-08T05:13:19.079Z,8.55
2023-01-08T05:14:19.058Z,8.54
2023-01-08T05:15:19.063Z,8.53
2023-01-08T05:16:19.146Z,8.51
2023-01-08T05:17:19.032Z,8.51
2023-01-08T05:18:19.023Z,8.50
2023-01-08T05:19:19.010Z,8.50
2023-01-08T05:20:19.176Z,8.48
2023-01-08T05:21:18.986Z,8.47
2023-01-08T05:22:18.980Z,8.45
2023-01-08T05:23:18.977Z,8.45
2023-01-08T05:24:18.954Z,8.47
2023-01-08T05:25:18.957Z,8.48
2023-01-08T05:26:18.927Z,8.48
2023-01-08T05:27:18.920Z,8.48
2023-01-08T05:28:18.909Z,8.45
2023-01-08T05:29:18.891Z,8.45
2023-01-08T05:30:18.904Z,8.45
2023-01-08T05:31:18.955Z,8.45
2023-01-08T05:32:18.869Z,8.45
2023-01-08T05:33:18.851Z,8.42
2023-01-08T05:34:18.839Z,8.42
2023-01-08T05:35:18.849Z,8.42
2023-01-08T05:36:18.818Z,8.42
2023-01-08T05:37:18.804Z,8.42
2023-01-08T05:38:18.788Z,8.40
2023-01-08T05:39:18.784Z,8.39
2023-01-08T05:40:18.792Z,8.39
2023-01-08T05:41:18.768Z,8.40
2023-01-08T05:42:18.747Z,8.42
2023-01-08T05:43:18.760Z,8.44
2023-01-08T05:44:18.719Z,8.45
2023-01-08T05:45:18.720Z,8.44
2023-01-08T05:46:18.743Z,8.44
2023-01-08T05:47:18.699Z,8.42
2023-01-08T05:48:18.678Z,8.40
2023-01-08T05:49:18.672Z,8.42
2023-01-08T05:50:18.659Z,8.40
2023-01-08T05:51:18.671Z,8.42
2023-01-08T05:52:18.638Z,8.39
2023-01-08T05:53:18.626Z,8.37
2023-01-08T05:54:18.623Z,8.37
2023-01-08T05:55:18.606Z,8.35
2023-01-08T05:56:18.608Z,8.36
2023-01-08T05:57:18.583Z,8.33
2023-01-08T05:58:18.566Z,8.32
2023-01-08T05:59:18.568Z,8.30
2023-01-08T06:00:18.555Z,8.30
2023-01-08T06:01:18.615Z,8.28
2023-01-08T06:02:18.534Z,8.28
2023-01-08T06:03:18.532Z,8.26
2023-01-08T06:04:18.620Z,8.25
2023-01-08T06:05:18.512Z,8.25
2023-01-08T06:06:18.506Z,8.22
2023-01-08T06:07:18.475Z,8.22
2023-01-08T06:08:18.460Z,8.20
2023-01-08T06:09:18.448Z,8.20
2023-01-08T06:10:18.446Z,8.18
2023-01-08T06:11:18.455Z,8.17
2023-01-08T06:12:18.423Z,8.15
2023-01-08T06:13:18.397Z,8.15
2023-01-08T06:14:18.389Z,8.14
2023-01-08T06:15:18.378Z,8.12
2023-01-08T06:16:18.459Z,8.14
2023-01-08T06:17:18.366Z,8.14
2023-01-08T06:18:18.348Z,8.14
2023-01-08T06:19:18.342Z,8.14
2023-01-08T06:20:18.320Z,8.12
2023-01-08T06:21:18.338Z,8.14
2023-01-08T06:22:18.305Z,8.12
2023-01-08T06:23:18.298Z,8.14
2023-01-08T06:24:18.279Z,8.14
2023-01-08T06:25:18.269Z,8.14
2023-01-08T06:26:18.277Z,8.12
2023-01-08T06:27:18.251Z,8.14
2023-01-08T06:28:18.243Z,8.12
2023-01-08T06:29:18.230Z,8.14
2023-01-08T06:30:18.233Z,8.14
2023-01-08T06:31:18.326Z,8.17
2023-01-08T06:32:18.195Z,8.20
2023-01-08T06:33:20.916Z,8.21
2023-01-08T06:34:18.171Z,8.21
2023-01-08T06:35:18.153Z,8.22
2023-01-08T06:36:18.159Z,8.25
2023-01-08T06:37:18.147Z,8.25
2023-01-08T06:38:18.125Z,8.26
2023-01-08T06:39:18.116Z,8.28
2023-01-08T06:40:18.102Z,8.29
2023-01-08T06:41:18.113Z,8.30
2023-01-08T06:42:18.089Z,8.32
2023-01-08T06:43:18.076Z,8.33
2023-01-08T06:44:18.061Z,8.33
2023-01-08T06:45:18.048Z,8.33
2023-01-08T06:46:18.090Z,8.33
2023-01-08T06:47:18.023Z,8.33
2023-01-08T06:48:18.006Z,8.33
2023-01-08T06:49:18.009Z,8.32
2023-01-08T06:50:17.990Z,8.30
2023-01-08T06:51:17.996Z,8.30
2023-01-08T06:52:17.995Z,8.30
2023-01-08T06:53:17.959Z,8.30
2023-01-08T06:54:17.941Z,8.29
2023-01-08T06:55:17.934Z,8.29
2023-01-08T06:56:17.940Z,8.29
2023-01-08T06:57:17.920Z,8.29
2023-01-08T06:58:17.892Z,8.28
2023-01-08T06:59:17.895Z,8.28
2023-01-08T07:00:25.494Z,8.26
2023-01-08T07:01:18.021Z,8.29
2023-01-08T07:02:18.118Z,8.29
2023-01-08T07:03:17.930Z,8.29
2023-01-08T07:04:18.755Z,8.29
2023-01-08T07:05:17.834Z,8.29
2023-01-08T07:06:17.860Z,8.30
2023-01-08T07:07:17.808Z,8.32
2023-01-08T07:08:17.795Z,8.33
2023-01-08T07:09:17.809Z,8.36
2023-01-08T07:10:19.920Z,8.39
2023-01-08T07:11:17.789Z,8.40
2023-01-08T07:12:17.767Z,8.45
2023-01-08T07:13:17.761Z,8.44
2023-01-08T07:14:17.740Z,8.45
2023-01-08T07:15:17.730Z,8.45
2023-01-08T07:16:17.769Z,8.47
2023-01-08T07:17:17.692Z,8.45
2023-01-08T07:18:17.695Z,8.42
2023-01-08T07:19:17.679Z,8.44
2023-01-08T07:20:17.663Z,8.45
2023-01-08T07:21:17.664Z,8.44
2023-01-08T07:22:17.659Z,8.45
2023-01-08T07:23:17.633Z,8.45
2023-01-08T07:24:17.619Z,8.47
2023-01-08T07:25:17.641Z,8.48
2023-01-08T07:26:17.621Z,8.48
2023-01-08T07:27:17.575Z,8.47
2023-01-08T07:28:17.587Z,8.48
2023-01-08T07:29:17.563Z,8.50
2023-01-08T07:30:28.713Z,8.51
2023-01-08T07:31:17.654Z,8.53
2023-01-08T07:32:17.554Z,8.54
2023-01-08T07:33:17.526Z,8.55
2023-01-08T07:34:17.518Z,8.57
2023-01-08T07:35:17.495Z,8.57
2023-01-08T07:36:17.504Z,8.58
2023-01-08T07:37:17.482Z,8.60
2023-01-08T07:38:17.465Z,8.60
2023-01-08T07:39:17.494Z,8.60
2023-01-08T07:40:17.445Z,8.65
2023-01-08T07:41:17.469Z,8.66
2023-01-08T07:42:17.432Z,8.66
2023-01-08T07:43:17.421Z,8.66
2023-01-08T07:44:17.389Z,8.68
2023-01-08T07:45:17.385Z,8.66
2023-01-08T07:46:17.493Z,8.68
2023-01-08T07:47:17.394Z,8.69
2023-01-08T07:48:17.369Z,8.72
2023-01-08T07:49:17.361Z,8.75
2023-01-08T07:50:17.355Z,8.76
2023-01-08T07:51:17.351Z,8.78
2023-01-08T07:52:17.316Z,8.79
2023-01-08T07:53:17.316Z,8.79
2023-01-08T07:54:17.284Z,8.83
2023-01-08T07:55:17.285Z,8.81
2023-01-08T07:56:17.303Z,8.83
2023-01-08T07:57:17.255Z,8.86
2023-01-08T07:58:17.261Z,8.87
2023-01-08T07:59:17.238Z,8.87
2023-01-08T08:00:17.225Z,8.88
2023-01-08T08:01:17.255Z,8.90
2023-01-08T08:02:17.394Z,8.90
2023-01-08T08:03:17.240Z,8.90
2023-01-08T08:04:17.186Z,8.91
2023-01-08T08:05:17.198Z,8.90
2023-01-08T08:06:17.167Z,8.90
2023-01-08T08:07:17.137Z,8.90
2023-01-08T08:08:17.162Z,8.90
2023-01-08T08:09:17.126Z,8.90
2023-01-08T08:10:17.107Z,8.93
2023-01-08T08:11:17.124Z,8.93
2023-01-08T08:12:17.087Z,8.94
2023-01-08T08:13:17.092Z,8.96
2023-01-08T08:14:17.060Z,8.94
2023-01-08T08:15:17.074Z,8.96
2023-01-08T08:16:17.147Z,8.93
2023-01-08T08:17:17.041Z,8.93
2023-01-08T08:18:17.023Z,8.93
2023-01-08T08:19:17.035Z,8.93
2023-01-08T08:20:17.002Z,8.94
2023-01-08T08:21:17.014Z,8.93
2023-01-08T08:22:16.982Z,8.93
2023-01-08T08:23:16.978Z,8.91
2023-01-08T08:24:16.961Z,8.90
2023-01-08T08:25:16.938Z,8.90
2023-01-08T08:26:16.957Z,8.90
2023-01-08T08:27:16.935Z,8.91
2023-01-08T08:28:16.923Z,8.91
2023-01-08T08:29:16.915Z,8.90
2023-01-08T08:30:16.904Z,8.90
2023-01-08T08:31:16.921Z,8.90
2023-01-08T08:32:16.866Z,8.90
2023-01-08T08:33:16.860Z,8.90
2023-01-08T08:34:16.856Z,8.91
2023-01-08T08:35:16.851Z,8.91
2023-01-08T08:36:16.874Z,8.94
2023-01-08T08:37:16.826Z,8.94
2023-01-08T08:38:16.805Z,8.94
2023-01-08T08:39:16.799Z,8.96
2023-01-08T08:40:16.813Z,8.99
2023-01-08T08:41:16.790Z,8.97
2023-01-08T08:42:16.777Z,8.96
2023-01-08T08:43:16.752Z,8.96
2023-01-08T08:44:16.772Z,8.94
2023-01-08T08:45:16.782Z,8.96
2023-01-08T08:46:16.760Z,8.96
2023-01-08T08:47:16.712Z,9.01
2023-01-08T08:48:16.689Z,9.02
2023-01-08T08:49:16.687Z,9.06
2023-01-08T08:50:16.710Z,9.05
2023-01-08T08:51:16.677Z,9.06
2023-01-08T08:52:16.649Z,9.09
2023-01-08T08:53:16.660Z,9.09
2023-01-08T08:54:16.633Z,9.10
2023-01-08T08:55:16.625Z,9.12
2023-01-08T08:56:16.651Z,9.12
2023-01-08T08:57:16.592Z,9.12
2023-01-08T08:58:16.585Z,9.12
2023-01-08T08:59:16.578Z,9.10
2023-01-08T09:00:16.578Z,9.09
2023-01-08T09:01:16.630Z,9.12
2023-01-08T09:02:16.871Z,9.12
2023-01-08T09:03:16.655Z,9.10
2023-01-08T09:04:16.528Z,9.13
2023-01-08T09:05:16.537Z,9.15
2023-01-08T09:06:16.490Z,9.16
2023-01-08T09:07:16.511Z,9.20
2023-01-08T09:08:16.477Z,9.21
2023-01-08T09:09:16.472Z,9.23
2023-01-08T09:10:16.448Z,9.24
2023-01-08T09:11:16.455Z,9.25
2023-01-08T09:12:16.488Z,9.27
2023-01-08T09:13:16.418Z,9.30
2023-01-08T09:14:16.411Z,9.32
2023-01-08T09:15:16.411Z,9.32
2023-01-08T09:16:16.436Z,9.32
2023-01-08T09:17:16.397Z,9.34
2023-01-08T09:18:16.370Z,9.34
2023-01-08T09:19:16.357Z,9.32
2023-01-08T09:20:16.360Z,9.31
2023-01-08T09:21:16.345Z,9.28
2023-01-08T09:22:16.351Z,9.30
2023-01-08T09:23:16.332Z,9.30
2023-01-08T09:24:16.317Z,9.28
2023-01-08T09:25:16.291Z,9.30
2023-01-08T09:26:16.279Z,9.31
2023-01-08T09:27:16.728Z,9.31
2023-01-08T09:28:17.572Z,9.30
2023-01-08T09:29:16.249Z,9.30
2023-01-08T09:30:16.226Z,9.30
2023-01-08T09:31:16.310Z,9.30
2023-01-08T09:32:16.225Z,9.31
2023-01-08T09:33:16.222Z,9.30
2023-01-08T09:34:16.187Z,9.31
2023-01-08T09:35:16.184Z,9.31
2023-01-08T09:36:16.193Z,9.31
2023-01-08T09:37:16.177Z,9.34
2023-01-08T09:38:16.149Z,9.34
2023-01-08T09:39:16.154Z,9.35
2023-01-08T09:40:16.131Z,9.38
2023-01-08T09:41:16.110Z,9.35
2023-01-08T09:42:16.120Z,9.38
2023-01-08T09:43:16.095Z,9.38
2023-01-08T09:44:16.095Z,9.38
2023-01-08T09:45:16.077Z,9.39
2023-01-08T09:46:16.116Z,9.42
2023-01-08T09:47:16.056Z,9.42
2023-01-08T09:48:16.044Z,9.43
2023-01-08T09:49:16.019Z,9.45
2023-01-08T09:50:16.018Z,9.46
2023-01-08T09:51:16.026Z,9.49
2023-01-08T09:52:16.016Z,9.52
2023-01-08T09:53:15.982Z,9.52
2023-01-08T09:54:15.979Z,9.58
2023-01-08T09:55:15.960Z,9.60
2023-01-08T09:56:15.960Z,9.61
2023-01-08T09:57:15.973Z,9.64
2023-01-08T09:58:15.929Z,9.67
2023-01-08T09:59:15.915Z,9.70
2023-01-08T10:00:15.908Z,9.71
2023-01-08T10:01:16.049Z,9.73
2023-01-08T10:02:15.970Z,9.76
2023-01-08T10:03:15.883Z,9.76
2023-01-08T10:04:15.871Z,9.81
2023-01-08T10:05:15.864Z,9.79
2023-01-08T10:06:15.866Z,9.83
2023-01-08T10:07:15.855Z,9.83
2023-01-08T10:08:15.815Z,9.85
2023-01-08T10:09:15.816Z,9.85
2023-01-08T10:10:15.799Z,9.86
2023-01-08T10:11:15.789Z,9.86
2023-01-08T10:12:15.803Z,9.86
2023-01-08T10:13:15.766Z,9.86
2023-01-08T10:14:15.748Z,9.86
2023-01-08T10:15:15.741Z,9.88
2023-01-08T10:16:15.787Z,9.89
2023-01-08T10:17:15.762Z,9.88
2023-01-08T10:18:15.717Z,9.91
2023-01-08T10:19:15.696Z,9.88
2023-01-08T10:20:15.708Z,9.86
2023-01-08T10:21:15.665Z,9.85
2023-01-08T10:22:15.684Z,9.85
2023-01-08T10:23:15.660Z,9.83
2023-01-08T10:24:15.633Z,9.83
2023-01-08T10:25:15.630Z,9.83
2023-01-08T10:26:15.622Z,9.85
2023-01-08T10:27:15.620Z,9.85
2023-01-08T10:28:15.592Z,9.86
2023-01-08T10:29:15.578Z,9.88
2023-01-08T10:30:15.567Z,9.91
2023-01-08T10:31:15.622Z,9.93
2023-01-08T10:32:15.561Z,9.94
2023-01-08T10:33:15.532Z,9.96
2023-01-08T10:34:15.531Z,9.97
2023-01-08T10:35:15.520Z,10.00
2023-01-08T10:36:15.516Z,10.01
2023-01-08T10:37:15.520Z,10.01
2023-01-08T10:38:15.476Z,10.01
2023-01-08T10:39:15.458Z,10.04
2023-01-08T10:40:15.454Z,10.04
2023-01-08T10:41:15.446Z,10.04
2023-01-08T10:42:15.446Z,10.06
2023-01-08T10:43:15.418Z,10.04
2023-01-08T10:44:15.415Z,10.04
2023-01-08T10:45:15.399Z,10.03
2023-01-08T10:46:15.411Z,10.04
2023-01-08T10:47:15.393Z,10.04
2023-01-08T10:48:15.391Z,10.04
2023-01-08T10:49:15.352Z,10.03
2023-01-08T10:50:15.343Z,10.03
2023-01-08T10:51:15.336Z,10.03
2023-01-08T10:52:15.343Z,10.03
2023-01-08T10:53:15.303Z,10.01
2023-01-08T10:54:15.328Z,10.03
2023-01-08T10:55:15.289Z,10.06
2023-01-08T10:56:15.271Z,10.07
2023-01-08T10:57:15.276Z,10.07
2023-01-08T10:58:15.262Z,10.07
2023-01-08T10:59:15.246Z,10.07
2023-01-08T11:00:15.271Z,10.07
2023-01-08T11:01:15.314Z,10.09
2023-01-08T11:02:15.241Z,10.07
2023-01-08T11:03:15.210Z,10.10
2023-01-08T11:04:15.201Z,10.14
2023-01-08T11:05:15.176Z,10.15
2023-01-08T11:06:15.156Z,10.18
2023-01-08T11:07:15.172Z,10.22
2023-01-08T11:08:15.144Z,10.26
2023-01-08T11:09:15.159Z,10.30
2023-01-08T11:10:15.118Z,10.32
2023-01-08T11:11:15.118Z,10.34
2023-01-08T11:12:15.110Z,10.36
2023-01-08T11:13:15.092Z,10.34
2023-01-08T11:14:15.088Z,10.33
2023-01-08T11:15:15.064Z,10.32
2023-01-08T11:16:15.075Z,10.30
2023-01-08T11:17:15.083Z,10.28
2023-01-08T11:18:15.029Z,10.30
2023-01-08T11:19:15.283Z,10.32
2023-01-08T11:20:14.994Z,10.32
2023-01-08T11:21:15.014Z,10.33
2023-01-08T11:22:14.998Z,10.32
2023-01-08T11:23:14.973Z,10.32
2023-01-08T11:24:14.982Z,10.32
2023-01-08T11:25:14.941Z,10.30
2023-01-08T11:26:14.935Z,10.28
2023-01-08T11:27:14.946Z,10.26
2023-01-08T11:28:14.944Z,10.25
2023-01-08T11:29:14.897Z,10.24
2023-01-08T11:30:14.887Z,10.24
2023-01-08T11:31:14.905Z,10.22
2023-01-08T11:32:14.933Z,10.21
2023-01-08T11:33:14.859Z,10.19
2023-01-08T11:34:14.903Z,10.14
2023-01-08T11:35:14.840Z,10.10
2023-01-08T11:36:15.066Z,10.09
2023-01-08T11:37:14.903Z,10.04
2023-01-08T11:38:14.817Z,10.00
2023-01-08T11:39:14.796Z,9.94
2023-01-08T11:40:14.787Z,9.91
2023-01-08T11:41:14.778Z,9.88
2023-01-08T11:42:14.780Z,9.83
2023-01-08T11:43:14.753Z,9.79
2023-01-08T11:44:14.737Z,9.76
2023-01-08T11:45:14.733Z,9.75
2023-01-08T11:46:14.723Z,9.70
2023-01-08T11:47:14.716Z,9.67
2023-01-08T11:48:14.736Z,9.64
2023-01-08T11:49:14.671Z,9.63
2023-01-08T11:50:14.674Z,9.60
2023-01-08T11:51:14.654Z,9.57
2023-01-08T11:52:14.663Z,9.50
2023-01-08T11:53:14.634Z,9.50
2023-01-08T11:54:14.623Z,9.48
2023-01-08T11:55:14.766Z,9.45
2023-01-08T11:56:14.627Z,9.45
2023-01-08T11:57:14.643Z,9.42
2023-01-08T11:58:14.583Z,9.42
2023-01-08T11:59:14.581Z,9.43
2023-01-08T12:00:14.585Z,9.45
2023-01-08T12:01:14.586Z,9.43
2023-01-08T12:02:14.581Z,9.43
2023-01-08T12:03:14.574Z,9.43
2023-01-08T12:04:14.510Z,9.42
2023-01-08T12:05:14.517Z,9.40
2023-01-08T12:06:14.510Z,9.39
2023-01-08T12:07:14.503Z,9.35
2023-01-08T12:08:14.460Z,9.32
2023-01-08T12:09:14.459Z,9.31
2023-01-08T12:10:14.465Z,9.28
2023-01-08T12:11:14.436Z,9.25
2023-01-08T12:12:15.156Z,9.23
2023-01-08T12:13:14.433Z,9.21
2023-01-08T12:14:14.417Z,9.21
2023-01-08T12:15:14.397Z,9.20
2023-01-08T12:16:14.401Z,9.16
2023-01-08T12:17:14.378Z,9.15
2023-01-08T12:18:14.368Z,9.10
2023-01-08T12:19:14.357Z,9.09
2023-01-08T12:20:14.330Z,9.09
2023-01-08T12:21:14.341Z,9.09
2023-01-08T12:22:14.381Z,9.06
2023-01-08T12:23:14.299Z,9.09
2023-01-08T12:24:14.291Z,9.10
2023-01-08T12:25:14.284Z,9.12
2023-01-08T12:26:14.277Z,9.10
2023-01-08T12:27:14.283Z,9.10
2023-01-08T12:28:14.259Z,9.06
2023-01-08T12:29:14.240Z,9.05
2023-01-08T12:30:14.230Z,9.04
2023-01-08T12:31:14.261Z,9.04
2023-01-08T12:32:14.294Z,9.04
2023-01-08T12:33:14.194Z,9.05
2023-01-08T12:34:14.177Z,9.05
2023-01-08T12:35:14.219Z,9.02
2023-01-08T12:36:14.163Z,9.02
2023-01-08T12:37:14.167Z,9.01
2023-01-08T12:38:14.157Z,9.02
2023-01-08T12:39:14.151Z,9.02
2023-01-08T12:40:14.115Z,9.01
2023-01-08T12:41:14.119Z,9.02
2023-01-08T12:42:14.123Z,8.97
2023-01-08T12:43:14.126Z,8.96
2023-01-08T12:44:14.083Z,8.93
2023-01-08T12:45:14.080Z,8.97
2023-01-08T12:46:14.124Z,9.04
2023-01-08T12:47:14.059Z,9.06
2023-01-08T12:48:14.034Z,9.09
2023-01-08T12:49:14.039Z,9.09
2023-01-08T12:50:14.019Z,9.06
2023-01-08T12:51:14.026Z,9.04
2023-01-08T12:52:14.003Z,9.06
2023-01-08T12:53:13.974Z,9.09
2023-01-08T12:54:13.993Z,9.06
2023-01-08T12:55:13.953Z,9.09
2023-01-08T12:56:13.945Z,9.09
2023-01-08T12:57:13.957Z,9.15
2023-01-08T12:58:13.952Z,9.25
2023-01-08T12:59:13.912Z,9.31
2023-01-08T13:00:13.917Z,9.34
2023-01-08T13:01:20.769Z,9.32
2023-01-08T13:02:14.022Z,9.32
2023-01-08T13:03:13.887Z,9.28
2023-01-08T13:04:13.875Z,9.24
2023-01-08T13:05:13.911Z,9.24
2023-01-08T13:06:13.838Z,9.32
2023-01-08T13:07:13.836Z,9.35
2023-01-08T13:08:13.819Z,9.39
2023-01-08T13:09:13.813Z,9.35
2023-01-08T13:10:13.813Z,9.31
2023-01-08T13:11:13.784Z,9.25
2023-01-08T13:12:13.800Z,9.23
2023-01-08T13:13:13.778Z,9.18
2023-01-08T13:14:13.772Z,9.13
2023-01-08T13:15:13.738Z,9.06
2023-01-08T13:16:13.758Z,9.02